Time;durP1;ratioP1;P1;durP2;ratioP2;P2;SDS_P1;SDS_P2;PMS_P1;PMS_P2;Temp;Humidity;BMP_temperature;BMP_pressure;BME280_temperature;BME280_humidity;BME280_pressure;Samples;Min_cycle;Max_cycle;Signal;HPM_P1;HPM_P2
2022/12/14 00:01:21;;;;;;;19.60;11.30;;;-3.90;92.10;;;;;;5011672;28;20206;-81
2022/12/14 00:03:49;;;;;;;19.67;11.47;;;-3.90;92.40;;;;;;5009263;28;20213;-81
2022/12/14 00:06:17;;;;;;;17.23;10.97;;;-3.90;91.90;;;;;;5011120;28;20233;-81
2022/12/14 00:08:46;;;;;;;19.93;11.77;;;-3.80;91.60;;;;;;5011300;28;20205;-81
2022/12/14 00:11:26;;;;;;;16.97;11.37;;;-3.90;91.30;;;;;;5011034;28;20207;-81
2022/12/14 00:14:03;;;;;;;17.93;10.87;;;-3.90;91.60;;;;;;5011491;28;20229;-81
2022/12/14 00:16:31;;;;;;;18.57;11.00;;;-3.90;92.10;;;;;;5011216;28;20217;-81
2022/12/14 00:19:04;;;;;;;17.63;10.63;;;-3.90;91.80;;;;;;5010936;28;20221;-81
2022/12/14 00:24:54;;;;;;;18.30;10.97;;;-4.00;91.90;;;;;;5006090;28;20251;-81
2022/12/14 00:27:43;;;;;;;16.80;11.43;;;-3.90;92.00;;;;;;5011460;28;20203;-81
2022/12/14 00:30:15;;;;;;;17.60;11.17;;;-3.90;91.80;;;;;;5012059;28;20227;-81
2022/12/14 00:33:31;;;;;;;19.20;11.37;;;-3.90;92.10;;;;;;5011467;28;20728;-81
2022/12/14 00:35:58;;;;;;;20.23;11.70;;;-4.00;92.40;;;;;;5005211;28;20264;-81
2022/12/14 00:38:25;;;;;;;17.97;11.27;;;-3.90;92.40;;;;;;5012201;28;20385;-81
2022/12/14 00:40:57;;;;;;;18.33;11.90;;;-3.90;92.40;;;;;;5009282;28;20285;-81
2022/12/14 00:43:49;;;;;;;19.43;11.77;;;-3.80;91.90;;;;;;5011240;28;20211;-81
2022/12/14 00:46:16;;;;;;;16.17;11.00;;;-3.90;91.90;;;;;;5004973;28;20311;-81
2022/12/14 00:48:43;;;;;;;20.63;11.47;;;-3.80;92.40;;;;;;5002731;28;20217;-81
2022/12/14 00:51:19;;;;;;;19.33;11.70;;;-3.80;91.90;;;;;;5009538;28;20220;-81
2022/12/14 00:54:07;;;;;;;18.17;11.63;;;-3.90;92.60;;;;;;5011107;28;20227;-81
2022/12/14 00:56:35;;;;;;;20.07;12.03;;;-3.80;92.70;;;;;;5008796;28;20715;-81
2022/12/14 00:59:13;;;;;;;15.33;10.30;;;-3.70;92.20;;;;;;5012951;28;20211;-81
2022/12/14 01:01:49;;;;;;;19.43;11.63;;;-3.70;92.40;;;;;;5008885;28;20207;-81
2022/12/14 01:04:21;;;;;;;17.30;11.20;;;-3.60;91.80;;;;;;5014154;28;20265;-81
2022/12/14 01:06:49;;;;;;;18.87;10.83;;;-3.70;91.80;;;;;;5007382;28;20620;-81
2022/12/14 01:09:21;;;;;;;17.33;11.30;;;-3.70;92.00;;;;;;5009722;28;20201;-81
2022/12/14 01:11:50;;;;;;;19.73;11.93;;;-3.70;91.80;;;;;;5005667;28;20235;-81
2022/12/14 01:14:31;;;;;;;18.90;11.73;;;-3.60;91.30;;;;;;5005372;28;20207;-81
2022/12/14 01:17:07;;;;;;;19.57;11.53;;;-3.70;91.50;;;;;;5008042;28;20206;-81
2022/12/14 01:19:37;;;;;;;18.20;12.00;;;-3.60;91.90;;;;;;5011280;28;20737;-81
2022/12/14 01:25:31;;;;;;;17.87;11.43;;;-3.60;91.60;;;;;;5007560;28;20284;-81
2022/12/14 01:28:00;;;;;;;17.03;11.57;;;-3.60;92.00;;;;;;5012910;28;20666;-80
2022/12/14 01:30:27;;;;;;;17.33;12.03;;;-3.70;91.80;;;;;;5014514;28;20809;-81
2022/12/14 01:33:01;;;;;;;17.47;11.67;;;-3.70;92.00;;;;;;5005940;28;20211;-81
2022/12/14 01:35:28;;;;;;;19.97;10.93;;;-3.60;92.10;;;;;;5015032;28;20299;-81
2022/12/14 01:37:55;;;;;;;16.23;11.07;;;-3.50;91.10;;;;;;5007532;28;20207;-81
2022/12/14 01:40:57;;;;;;;19.30;11.93;;;-3.40;91.30;;;;;;5008805;28;20207;-81
2022/12/14 01:46:49;;;;;;;17.10;11.40;;;-3.40;90.60;;;;;;5003571;28;20716;-81
2022/12/14 01:49:23;;;;;;;21.83;12.20;;;-3.50;91.10;;;;;;5010190;28;20290;-81
2022/12/14 01:51:55;;;;;;;18.10;11.83;;;-3.60;91.20;;;;;;5009327;28;20293;-81
2022/12/14 01:54:23;;;;;;;18.17;11.50;;;-3.50;91.60;;;;;;5017123;28;20231;-81
2022/12/14 01:56:50;;;;;;;16.33;11.60;;;-3.50;91.60;;;;;;5015372;28;20301;-81
2022/12/14 01:59:21;;;;;;;16.23;11.23;;;-3.40;91.30;;;;;;5010899;28;20207;-81
2022/12/14 02:01:51;;;;;;;21.10;12.53;;;-3.40;91.50;;;;;;5014163;28;20195;-81
2022/12/14 02:04:19;;;;;;;20.57;12.70;;;-3.50;91.60;;;;;;5014631;28;20577;-81
2022/12/14 02:06:51;;;;;;;19.13;12.30;;;-3.60;91.80;;;;;;5008810;28;20233;-81
2022/12/14 02:09:22;;;;;;;18.07;12.17;;;-3.40;92.10;;;;;;5013041;28;20203;-81
2022/12/14 02:12:31;;;;;;;19.90;11.80;;;-3.30;92.00;;;;;;5012804;28;20294;-81
2022/12/14 02:15:00;;;;;;;23.53;12.67;;;-3.30;91.90;;;;;;5013276;28;20242;-81
2022/12/14 02:17:39;;;;;;;17.53;11.87;;;-3.30;91.90;;;;;;5017047;28;20349;-81
2022/12/14 02:20:16;;;;;;;17.60;11.60;;;-3.20;91.30;;;;;;5015485;28;20203;-81
2022/12/14 02:23:17;;;;;;;20.23;12.60;;;-3.30;91.20;;;;;;5009531;28;20300;-81
2022/12/14 02:26:07;;;;;;;18.03;11.80;;;-3.40;91.80;;;;;;5015619;28;20226;-80
2022/12/14 02:29:10;;;;;;;19.77;12.40;;;-3.40;91.70;;;;;;5017676;28;20239;-81
2022/12/14 02:31:44;;;;;;;18.97;12.00;;;-3.40;91.80;;;;;;5016659;28;20981;-81
2022/12/14 02:34:25;;;;;;;18.80;12.03;;;-3.40;92.20;;;;;;5012918;28;20281;-81
2022/12/14 02:36:57;;;;;;;20.43;12.63;;;-3.40;91.90;;;;;;5017469;28;20218;-81
2022/12/14 02:39:48;;;;;;;18.27;12.17;;;-3.50;91.90;;;;;;5013445;28;20207;-81
2022/12/14 02:42:41;;;;;;;20.27;12.37;;;-3.40;92.00;;;;;;5018359;28;20681;-81
2022/12/14 02:45:22;;;;;;;17.97;11.80;;;-3.40;92.30;;;;;;5010121;28;20299;-80
2022/12/14 02:47:54;;;;;;;20.33;12.10;;;-3.40;92.20;;;;;;5020892;28;20205;-81
2022/12/14 02:50:24;;;;;;;23.70;12.50;;;-3.30;92.00;;;;;;5012226;28;20204;-81
2022/12/14 02:53:04;;;;;;;20.23;13.00;;;-3.30;92.10;;;;;;5015938;28;20239;-81
2022/12/14 02:55:35;;;;;;;18.10;11.83;;;-3.40;92.20;;;;;;5013554;28;20206;-81
2022/12/14 02:58:13;;;;;;;20.60;12.10;;;-3.40;92.30;;;;;;5015480;28;20286;-81
2022/12/14 03:00:45;;;;;;;18.77;12.53;;;-3.30;92.30;;;;;;5016327;28;20281;-81
2022/12/14 03:03:12;;;;;;;19.03;12.67;;;-3.30;92.20;;;;;;5009152;28;20199;-81
2022/12/14 03:05:43;;;;;;;18.40;12.33;;;-3.30;91.70;;;;;;5013635;28;20345;-81
2022/12/14 03:08:20;;;;;;;19.63;12.13;;;-3.50;91.90;;;;;;5010876;28;20196;-81
2022/12/14 03:11:07;;;;;;;16.73;11.37;;;-3.50;92.20;;;;;;5009196;28;20300;-81
2022/12/14 03:13:37;;;;;;;21.53;12.23;;;-3.30;91.50;;;;;;5011352;28;20204;-81
2022/12/14 03:16:19;;;;;;;19.47;12.60;;;-3.40;91.70;;;;;;5009509;28;20290;-81
2022/12/14 03:19:07;;;;;;;19.37;12.47;;;-3.30;91.50;;;;;;5007319;28;20214;-81
2022/12/14 03:21:58;;;;;;;18.97;12.03;;;-3.30;91.80;;;;;;5013700;28;20299;-81
2022/12/14 03:24:29;;;;;;;20.73;13.13;;;-3.30;91.50;;;;;;5010804;28;20301;-81
2022/12/14 03:27:14;;;;;;;19.67;12.37;;;-3.20;91.40;;;;;;5009256;28;20336;-81
2022/12/14 03:29:46;;;;;;;20.03;12.40;;;-3.20;91.60;;;;;;5017527;28;20707;-81
2022/12/14 03:32:17;;;;;;;20.50;13.27;;;-3.30;91.40;;;;;;5010599;28;20207;-80
2022/12/14 03:34:52;;;;;;;18.33;12.50;;;-3.30;91.80;;;;;;5005719;28;20211;-81
2022/12/14 03:37:26;;;;;;;17.97;12.17;;;-3.20;91.80;;;;;;5002398;28;20208;-81
2022/12/14 03:40:02;;;;;;;19.37;12.50;;;-3.20;92.40;;;;;;5011119;28;20213;-81
2022/12/14 03:42:39;;;;;;;18.67;12.93;;;-3.10;92.00;;;;;;5010745;28;20293;-81
2022/12/14 03:45:49;;;;;;;19.47;12.53;;;-3.20;92.10;;;;;;5012829;28;20278;-81
2022/12/14 03:48:30;;;;;;;19.90;12.67;;;-3.10;91.90;;;;;;5008751;28;20205;-81
2022/12/14 03:51:11;;;;;;;21.00;12.73;;;-3.20;91.90;;;;;;5002499;28;20209;-81
2022/12/14 03:57:06;;;;;;;21.33;13.00;;;-3.30;91.80;;;;;;5011696;28;20222;-81
2022/12/14 03:59:40;;;;;;;19.30;12.53;;;-3.20;91.50;;;;;;5008181;28;20728;-81
2022/12/14 04:02:12;;;;;;;20.17;13.27;;;-3.30;92.30;;;;;;5008421;28;20302;-81
2022/12/14 04:04:46;;;;;;;20.63;13.33;;;-3.30;92.30;;;;;;5010134;28;20731;-81
2022/12/14 04:07:20;;;;;;;20.53;12.47;;;-3.10;92.20;;;;;;5012167;28;20305;-81
2022/12/14 04:09:51;;;;;;;21.57;13.30;;;-3.10;91.80;;;;;;5008738;28;20203;-81
2022/12/14 04:21:10;;;;;;;19.90;12.60;;;-3.30;92.40;;;;;;5007000;28;20211;-81
2022/12/14 04:26:39;;;;;;;19.63;12.60;;;-3.20;92.80;;;;;;5004826;28;20775;-81
2022/12/14 04:32:02;;;;;;;19.40;12.83;;;-3.00;92.30;;;;;;5005119;28;20734;-81
2022/12/14 04:34:30;;;;;;;19.63;12.93;;;-2.90;91.80;;;;;;5012179;28;20285;-80
2022/12/14 04:37:09;;;;;;;22.77;13.00;;;-2.80;91.90;;;;;;5011617;28;20294;-79
2022/12/14 04:39:41;;;;;;;21.13;12.13;;;-2.80;91.70;;;;;;5007480;28;20302;-81
2022/12/14 04:42:10;;;;;;;19.33;12.47;;;-2.80;91.90;;;;;;5007459;28;20298;-81
2022/12/14 04:44:41;;;;;;;18.50;12.67;;;-2.80;91.50;;;;;;5009992;28;20290;-81
2022/12/14 04:47:28;;;;;;;17.70;12.63;;;-2.80;91.80;;;;;;5008898;28;20310;-81
2022/12/14 04:50:00;;;;;;;18.67;12.30;;;-2.80;91.90;;;;;;5007480;28;20211;-81
2022/12/14 04:53:00;;;;;;;20.40;12.60;;;-2.90;91.90;;;;;;5006470;28;20687;-81
2022/12/14 04:58:49;;;;;;;20.77;13.47;;;-2.90;91.90;;;;;;5008076;28;20194;-81
2022/12/14 05:01:30;;;;;;;20.47;13.20;;;-2.90;91.70;;;;;;5005978;28;20204;-80
2022/12/14 05:04:08;;;;;;;19.83;13.10;;;-2.80;91.60;;;;;;5012468;28;20213;-81
2022/12/14 05:06:44;;;;;;;19.47;13.30;;;-2.90;91.80;;;;;;5010060;28;20315;-81
2022/12/14 05:09:18;;;;;;;21.83;13.83;;;-2.80;92.00;;;;;;5011531;28;20286;-81
2022/12/14 05:11:50;;;;;;;19.53;13.13;;;-2.90;92.10;;;;;;5009308;28;20286;-81
2022/12/14 05:14:22;;;;;;;20.60;13.07;;;-2.80;92.40;;;;;;5004220;28;20203;-81
2022/12/14 05:16:49;;;;;;;17.67;12.63;;;-2.80;91.80;;;;;;5004290;28;20286;-81
2022/12/14 05:19:32;;;;;;;22.37;13.77;;;-2.80;92.10;;;;;;5008364;28;20298;-81
2022/12/14 05:22:02;;;;;;;20.53;13.60;;;-2.70;92.00;;;;;;5007541;28;20203;-81
2022/12/14 05:24:30;;;;;;;20.50;13.07;;;-2.70;91.70;;;;;;5010540;28;20222;-81
2022/12/14 05:26:57;;;;;;;20.43;13.17;;;-2.80;91.80;;;;;;5004634;28;20239;-81
2022/12/14 05:29:43;;;;;;;23.50;13.90;;;-2.80;92.10;;;;;;5009711;28;20578;-81
2022/12/14 05:32:19;;;;;;;21.90;12.87;;;-2.70;92.10;;;;;;5010106;28;20202;-81
2022/12/14 05:35:01;;;;;;;19.70;12.90;;;-2.80;92.20;;;;;;5007031;28;20203;-81
2022/12/14 05:37:32;;;;;;;20.63;13.57;;;-2.70;92.00;;;;;;5009478;28;20243;-81
2022/12/14 05:40:03;;;;;;;19.33;13.17;;;-2.70;91.90;;;;;;5009459;28;20243;-81
2022/12/14 05:42:32;;;;;;;23.43;14.17;;;-2.70;92.30;;;;;;5010993;28;20622;-80
2022/12/14 05:45:02;;;;;;;21.23;13.63;;;-2.80;93.10;;;;;;5009406;28;20203;-81
2022/12/14 05:47:37;;;;;;;23.00;13.83;;;-2.90;92.60;;;;;;5008393;28;20229;-81
2022/12/14 05:50:14;;;;;;;19.27;13.33;;;-2.80;92.70;;;;;;5011469;28;20306;-81
2022/12/14 05:53:01;;;;;;;19.83;13.43;;;-2.80;92.60;;;;;;5003826;28;20210;-81
2022/12/14 05:55:46;;;;;;;24.20;14.30;;;-2.80;92.10;;;;;;5006315;28;20199;-80
2022/12/14 05:58:32;;;;;;;21.27;13.97;;;-2.80;92.40;;;;;;5001007;28;20802;-80
2022/12/14 06:01:00;;;;;;;23.17;14.17;;;-2.70;92.10;;;;;;5001156;28;20748;-80
2022/12/14 06:03:38;;;;;;;20.57;13.27;;;-2.70;92.40;;;;;;5010406;28;20211;-79
2022/12/14 06:06:20;;;;;;;22.73;14.33;;;-2.70;92.40;;;;;;5004144;28;20282;-80
2022/12/14 06:09:02;;;;;;;21.33;14.20;;;-2.80;92.70;;;;;;5006789;28;20338;-82
2022/12/14 06:11:39;;;;;;;20.73;13.47;;;-2.80;92.60;;;;;;5003402;28;20302;-80
2022/12/14 06:14:09;;;;;;;21.90;13.67;;;-2.90;93.40;;;;;;4999694;28;20747;-79
2022/12/14 06:16:41;;;;;;;20.50;13.83;;;-2.80;93.60;;;;;;4998506;28;20239;-79
2022/12/14 06:19:17;;;;;;;20.93;14.10;;;-2.70;93.50;;;;;;4999346;28;20707;-84
2022/12/14 06:21:54;;;;;;;21.07;14.53;;;-2.60;92.80;;;;;;4998540;28;20276;-83
2022/12/14 06:24:21;;;;;;;20.67;13.80;;;-2.80;92.80;;;;;;4998915;28;20210;-84
2022/12/14 06:26:52;;;;;;;23.37;14.20;;;-2.80;93.40;;;;;;5012006;28;20787;-85
2022/12/14 06:29:21;;;;;;;20.40;14.13;;;-2.80;93.40;;;;;;5006859;28;20211;-81
2022/12/14 06:31:48;;;;;;;23.50;13.53;;;-2.70;93.50;;;;;;5008786;28;20203;-85
2022/12/14 06:34:55;;;;;;;18.80;13.23;;;-2.70;93.50;;;;;;5011095;28;20235;-83
2022/12/14 06:37:43;;;;;;;22.77;14.43;;;-2.70;93.10;;;;;;5004869;28;20207;-82
2022/12/14 06:40:14;;;;;;;24.37;14.50;;;-2.80;93.10;;;;;;5004483;28;20203;-84
2022/12/14 06:46:11;;;;;;;24.67;15.00;;;-3.00;93.40;;;;;;5010501;28;20274;-82
2022/12/14 06:48:56;;;;;;;22.70;14.53;;;-2.90;94.00;;;;;;5014572;28;20226;-83
2022/12/14 06:51:24;;;;;;;24.33;15.73;;;-2.90;94.10;;;;;;5012363;28;20205;-82
2022/12/14 06:54:19;;;;;;;24.63;15.00;;;-2.90;94.10;;;;;;5014554;28;20245;-83
2022/12/14 06:57:02;;;;;;;24.00;15.53;;;-3.00;94.40;;;;;;5008109;28;20204;-82
2022/12/14 07:00:10;;;;;;;23.33;14.10;;;-2.90;94.60;;;;;;5006875;28;20285;-83
2022/12/14 07:02:51;;;;;;;23.40;14.90;;;-2.90;94.50;;;;;;5003603;28;20206;-83
2022/12/14 07:05:26;;;;;;;21.60;14.23;;;-3.10;94.70;;;;;;5007886;28;20196;-83
2022/12/14 07:07:53;;;;;;;23.47;14.60;;;-3.00;94.70;;;;;;5010908;28;20219;-84
2022/12/14 07:10:20;;;;;;;25.77;15.93;;;-2.80;94.90;;;;;;5007389;28;20279;-83
2022/12/14 07:19:57;;;;;;;22.73;14.57;;;-2.70;95.00;;;;;;5014786;28;20249;-82
2022/12/14 07:26:06;;;;;;;25.93;15.27;;;-2.70;94.60;;;;;;5027352;28;20203;-82
2022/12/14 07:29:25;;;;;;;26.40;16.03;;;-2.70;95.20;;;;;;5011198;28;20254;-82
2022/12/14 07:32:25;;;;;;;24.77;15.83;;;-2.60;95.30;;;;;;5012770;28;20275;-82
2022/12/14 07:41:38;;;;;;;24.73;15.17;;;-2.50;95.20;;;;;;5013306;28;20560;-82
2022/12/14 07:44:25;;;;;;;24.63;14.90;;;-2.50;95.10;;;;;;5013043;28;20201;-82
2022/12/14 07:46:53;;;;;;;23.23;15.30;;;-2.40;95.00;;;;;;5008348;28;20199;-82
2022/12/14 07:52:42;;;;;;;23.60;15.37;;;-2.30;95.20;;;;;;5014971;28;20294;-82
2022/12/14 07:55:49;;;;;;;26.03;15.47;;;-2.30;95.00;;;;;;5022522;28;20290;-80
2022/12/14 07:58:17;;;;;;;24.07;13.97;;;-2.20;94.90;;;;;;5003978;28;20214;-82
2022/12/14 08:01:38;;;;;;;24.43;15.47;;;-2.10;95.00;;;;;;5008894;28;20209;-81
2022/12/14 08:04:16;;;;;;;22.83;14.70;;;-2.10;94.50;;;;;;5013022;28;20284;-82
2022/12/14 08:07:31;;;;;;;23.47;14.67;;;-2.20;95.00;;;;;;5014202;28;20289;-80
2022/12/14 08:09:58;;;;;;;22.37;14.17;;;-2.10;95.10;;;;;;5005990;28;20287;-82
2022/12/14 08:12:38;;;;;;;22.40;14.90;;;-2.00;94.90;;;;;;5014083;28;20196;-82
2022/12/14 08:15:39;;;;;;;25.97;14.93;;;-2.10;94.60;;;;;;5017189;28;20203;-81
2022/12/14 08:18:06;;;;;;;25.53;15.10;;;-2.00;94.60;;;;;;5004451;28;20210;-82
2022/12/14 08:20:50;;;;;;;28.70;15.87;;;-1.90;95.20;;;;;;5016818;28;20644;-82
2022/12/14 08:23:17;;;;;;;27.43;16.37;;;-1.80;95.30;;;;;;5010486;28;20195;-82
2022/12/14 08:25:57;;;;;;;21.10;14.70;;;-1.70;95.40;;;;;;5016235;28;20198;-81
2022/12/14 08:32:09;;;;;;;25.00;14.60;;;-1.80;94.70;;;;;;5009696;28;20985;-82
2022/12/14 08:34:50;;;;;;;21.90;14.50;;;-1.80;94.70;;;;;;5016145;28;20207;-83
2022/12/14 08:37:17;;;;;;;25.23;15.10;;;-1.80;95.30;;;;;;5031560;28;20301;-83
2022/12/14 08:39:44;;;;;;;25.27;15.13;;;-1.70;95.00;;;;;;5026960;28;20656;-83
2022/12/14 08:42:37;;;;;;;27.40;16.50;;;-1.80;95.10;;;;;;5015510;28;20622;-81
2022/12/14 08:45:31;;;;;;;24.30;15.47;;;-1.70;95.30;;;;;;5004791;28;20191;-82
2022/12/14 08:51:29;;;;;;;21.33;14.93;;;-1.70;95.20;;;;;;5011452;28;20203;-83
2022/12/14 08:57:17;;;;;;;24.97;15.40;;;-1.60;95.40;;;;;;4995712;28;20215;-83
2022/12/14 09:00:09;;;;;;;28.23;16.67;;;-1.50;95.30;;;;;;5013852;28;20196;-82
2022/12/14 09:02:45;;;;;;;25.83;15.83;;;-1.40;95.50;;;;;;5012133;28;20199;-82
2022/12/14 09:05:26;;;;;;;23.07;15.93;;;-1.30;95.40;;;;;;5013264;28;20612;-82
2022/12/14 09:07:58;;;;;;;22.77;15.30;;;-1.20;95.70;;;;;;5012803;28;20273;-83
2022/12/14 09:10:24;;;;;;;25.90;15.77;;;-1.20;95.40;;;;;;5005746;28;20656;-84
2022/12/14 09:12:51;;;;;;;26.57;16.97;;;-1.20;95.10;;;;;;5007591;28;20293;-82
2022/12/14 09:15:18;;;;;;;25.73;15.57;;;-1.30;95.30;;;;;;5001354;28;20201;-83
2022/12/14 09:17:50;;;;;;;23.40;15.10;;;-1.20;95.60;;;;;;5002114;28;20192;-82
2022/12/14 09:20:26;;;;;;;23.67;15.73;;;-1.20;95.40;;;;;;5002869;28;20549;-83
2022/12/14 09:23:21;;;;;;;22.27;15.30;;;-1.10;95.20;;;;;;5009712;28;20283;-82
2022/12/14 09:26:37;;;;;;;23.20;15.23;;;-1.10;95.50;;;;;;5011898;28;20191;-84
2022/12/14 09:29:37;;;;;;;23.63;15.17;;;-1.00;95.30;;;;;;5011095;28;20325;-83
2022/12/14 09:36:02;;;;;;;26.63;15.37;;;-1.10;95.70;;;;;;5010023;28;20209;-82
2022/12/14 09:38:32;;;;;;;26.77;15.53;;;-1.00;95.70;;;;;;5011447;28;20210;-82
2022/12/14 09:41:24;;;;;;;23.13;15.27;;;-1.10;95.80;;;;;;5012137;28;20233;-82
2022/12/14 09:44:37;;;;;;;25.37;15.53;;;-1.10;96.00;;;;;;5012820;28;20229;-80
2022/12/14 09:47:28;;;;;;;23.40;15.13;;;-1.10;96.40;;;;;;5003681;28;20230;-82
2022/12/14 09:50:43;;;;;;;24.10;15.43;;;-1.00;96.40;;;;;;5011687;28;20566;-79
2022/12/14 09:53:21;;;;;;;25.80;15.80;;;-1.00;96.40;;;;;;5009262;28;20589;-79
2022/12/14 09:55:53;;;;;;;25.20;15.80;;;-1.00;96.40;;;;;;5005381;28;20566;-81
2022/12/14 10:01:55;;;;;;;26.73;15.47;;;-0.90;96.50;;;;;;4994941;28;20194;-79
2022/12/14 10:05:00;;;;;;;23.07;15.03;;;-0.80;96.20;;;;;;5010750;28;20287;-81
2022/12/14 10:07:58;;;;;;;24.30;15.60;;;-0.70;96.10;;;;;;5011819;28;20194;-80
2022/12/14 10:17:55;;;;;;;23.47;14.53;;;-0.40;95.40;;;;;;4998783;28;20191;-79
2022/12/14 10:20:41;;;;;;;23.57;15.47;;;-0.20;95.70;;;;;;5016040;28;20202;-80
2022/12/14 10:23:19;;;;;;;19.87;13.90;;;-0.10;95.30;;;;;;5009274;28;20199;-77
2022/12/14 10:25:54;;;;;;;22.90;13.97;;;0.00;95.20;;;;;;5005659;28;20681;-80
2022/12/14 10:28:27;;;;;;;24.57;15.13;;;0.10;94.70;;;;;;5016436;28;20206;-81
2022/12/14 10:34:21;;;;;;;21.37;14.27;;;0.00;95.30;;;;;;5016445;28;20178;-80
2022/12/14 10:37:14;;;;;;;27.67;15.53;;;0.00;95.90;;;;;;5014569;28;20601;-81
2022/12/14 10:43:32;;;;;;;22.23;14.43;;;-0.20;97.10;;;;;;5008605;28;20242;-85
2022/12/14 10:46:27;;;;;;;24.50;15.73;;;-0.30;97.60;;;;;;5011906;28;20286;-81
2022/12/14 10:52:19;;;;;;;23.90;15.07;;;-0.20;98.30;;;;;;5007575;28;20553;-79
2022/12/14 10:54:54;;;;;;;24.63;15.00;;;-0.10;98.50;;;;;;5011246;28;20619;-78
2022/12/14 10:57:23;;;;;;;23.03;15.10;;;0.00;98.50;;;;;;5013752;28;20217;-78
2022/12/14 11:00:19;;;;;;;22.70;14.50;;;0.00;98.30;;;;;;5011054;28;20208;-78
2022/12/14 11:03:03;;;;;;;22.60;14.83;;;0.10;98.10;;;;;;5001824;28;20287;-78
2022/12/14 11:05:52;;;;;;;21.73;14.97;;;0.20;97.80;;;;;;4997586;28;20208;-79
2022/12/14 11:08:40;;;;;;;24.20;14.63;;;0.30;97.60;;;;;;5007998;28;20222;-80
2022/12/14 11:21:29;;;;;;;24.73;14.97;;;0.60;96.80;;;;;;4997179;28;20593;-79
2022/12/14 11:24:50;;;;;;;28.77;15.87;;;0.50;96.80;;;;;;5012633;28;20278;-80
2022/12/14 11:27:55;;;;;;;32.57;16.93;;;0.50;97.50;;;;;;5012125;28;20199;-80
2022/12/14 11:33:48;;;;;;;25.63;15.63;;;0.50;98.50;;;;;;4998327;28;20238;-80
2022/12/14 11:36:35;;;;;;;23.83;16.00;;;0.60;98.30;;;;;;5009296;28;20202;-81
2022/12/14 11:39:39;;;;;;;23.70;16.27;;;0.60;98.60;;;;;;5008638;28;20674;-81
2022/12/14 11:42:26;;;;;;;23.97;16.07;;;0.50;98.60;;;;;;4997287;28;20196;-80
2022/12/14 11:45:32;;;;;;;21.87;15.73;;;0.50;98.90;;;;;;5002384;28;20191;-80
2022/12/14 11:48:20;;;;;;;25.00;14.90;;;0.60;99.30;;;;;;5009580;28;20690;-81
2022/12/14 11:50:55;;;;;;;25.27;16.77;;;0.60;99.00;;;;;;5015919;28;20206;-83
2022/12/14 11:53:32;;;;;;;24.37;16.37;;;0.70;99.30;;;;;;5002725;28;20215;-84
2022/12/14 11:56:16;;;;;;;27.70;15.97;;;0.80;99.40;;;;;;5002187;28;20737;-84
2022/12/14 11:58:50;;;;;;;24.03;15.37;;;0.90;99.40;;;;;;5017174;28;20214;-84
2022/12/14 12:01:44;;;;;;;26.63;16.00;;;1.00;99.40;;;;;;5009613;28;20191;-84
2022/12/14 12:04:26;;;;;;;29.67;16.73;;;0.80;99.00;;;;;;5006056;28;20297;-83
2022/12/14 12:06:55;;;;;;;24.20;15.43;;;0.80;99.40;;;;;;5013993;28;20278;-82
2022/12/14 12:09:30;;;;;;;24.90;15.77;;;0.90;99.40;;;;;;5005741;28;20226;-83
2022/12/14 12:12:02;;;;;;;23.67;15.40;;;1.00;99.20;;;;;;5007454;28;20195;-82
2022/12/14 12:14:35;;;;;;;25.30;16.13;;;1.00;98.60;;;;;;5011953;28;20571;-83
2022/12/14 12:17:16;;;;;;;26.57;16.50;;;0.90;98.80;;;;;;5014838;28;20682;-85
2022/12/14 12:23:25;;;;;;;22.57;15.37;;;0.70;99.30;;;;;;5008936;28;20230;-82
2022/12/14 12:26:11;;;;;;;22.00;15.63;;;0.90;99.50;;;;;;5006928;28;20571;-85
2022/12/14 12:29:06;;;;;;;25.10;15.37;;;1.00;99.40;;;;;;5001560;28;20896;-82
2022/12/14 12:31:37;;;;;;;24.90;15.73;;;1.00;99.20;;;;;;5005431;28;20285;-82
2022/12/14 12:34:24;;;;;;;23.23;16.70;;;1.00;99.40;;;;;;5010129;28;20277;-83
2022/12/14 12:36:58;;;;;;;29.23;18.20;;;0.90;99.40;;;;;;5000921;28;20231;-83
2022/12/14 12:39:48;;;;;;;27.60;16.77;;;0.80;99.60;;;;;;5000457;28;20204;-84
2022/12/14 12:42:42;;;;;;;30.73;17.57;;;0.90;99.90;;;;;;5024095;28;20287;-83
2022/12/14 12:45:25;;;;;;;25.00;17.17;;;0.90;99.90;;;;;;5004316;28;20211;-84
2022/12/14 12:47:59;;;;;;;24.57;17.20;;;0.90;99.90;;;;;;5002630;28;20207;-84
2022/12/14 12:51:02;;;;;;;25.17;17.37;;;0.80;99.90;;;;;;5002721;28;20293;-83
2022/12/14 12:56:56;;;;;;;28.53;18.13;;;0.90;99.90;;;;;;5011550;28;20222;-83
2022/12/14 12:59:45;;;;;;;28.90;17.90;;;0.90;99.90;;;;;;5011521;28;20739;-83
2022/12/14 13:03:07;;;;;;;27.20;18.43;;;0.90;99.90;;;;;;5013353;28;20207;-82
2022/12/14 13:05:41;;;;;;;26.83;18.43;;;0.90;99.90;;;;;;5011815;28;20242;-83
2022/12/14 13:08:34;;;;;;;27.73;18.63;;;0.90;99.90;;;;;;5010371;28;20313;-83
2022/12/14 13:11:18;;;;;;;28.00;18.07;;;1.00;99.90;;;;;;5012417;28;20227;-82
2022/12/14 13:13:50;;;;;;;25.13;17.27;;;0.90;99.90;;;;;;5008128;28;20316;-82
2022/12/14 13:16:56;;;;;;;26.53;18.00;;;1.10;99.90;;;;;;5006794;28;20195;-81
2022/12/14 13:19:38;;;;;;;28.67;18.70;;;1.10;99.90;;;;;;5008067;28;20242;-81
2022/12/14 13:22:09;;;;;;;27.07;18.90;;;1.00;99.90;;;;;;5005266;28;20203;-82
2022/12/14 13:24:36;;;;;;;31.67;19.67;;;0.90;99.90;;;;;;5010724;28;20199;-81
2022/12/14 13:27:55;;;;;;;29.63;18.90;;;0.90;99.90;;;;;;5012159;28;20201;-83
2022/12/14 13:31:01;;;;;;;26.50;17.47;;;0.80;99.90;;;;;;5007701;28;20298;-81
2022/12/14 13:37:29;;;;;;;30.00;18.87;;;1.00;99.90;;;;;;5013681;28;20178;-83
2022/12/14 13:40:33;;;;;;;29.27;18.10;;;1.10;99.90;;;;;;5009149;28;20222;-83
2022/12/14 13:46:38;;;;;;;28.17;17.90;;;1.10;99.90;;;;;;5007295;28;20198;-82
2022/12/14 13:49:26;;;;;;;25.00;18.10;;;1.20;99.90;;;;;;5018137;28;20232;-82
2022/12/14 13:51:54;;;;;;;28.70;18.50;;;1.30;99.90;;;;;;5004200;28;20258;-81
2022/12/14 13:54:37;;;;;;;27.80;18.27;;;1.10;99.80;;;;;;5012337;28;20307;-83
2022/12/14 13:57:07;;;;;;;30.07;17.70;;;1.00;99.90;;;;;;5007559;28;20652;-81
2022/12/14 13:59:48;;;;;;;25.90;17.63;;;0.90;99.90;;;;;;5022423;28;20667;-82
2022/12/14 14:02:52;;;;;;;27.93;17.83;;;0.90;99.90;;;;;;5005090;28;20279;-81
2022/12/14 14:08:35;;;;;;;29.30;17.70;;;1.00;99.90;;;;;;5010064;28;20302;-81
2022/12/14 14:11:31;;;;;;;26.60;18.13;;;1.00;99.90;;;;;;5010184;28;20191;-81
2022/12/14 14:14:29;;;;;;;26.00;17.83;;;1.00;99.90;;;;;;4957460;28;20239;-80
2022/12/14 14:17:00;;;;;;;25.23;16.77;;;1.10;99.90;;;;;;4971118;28;20207;-80
2022/12/14 14:19:44;;;;;;;27.53;17.60;;;1.30;99.90;;;;;;4965780;28;20223;-81
2022/12/14 14:25:42;;;;;;;25.10;16.60;;;1.20;99.70;;;;;;4964383;28;20196;-80
2022/12/14 14:28:11;;;;;;;26.33;18.00;;;1.10;99.90;;;;;;4967736;28;20200;-80
2022/12/14 14:31:03;;;;;;;27.47;17.63;;;1.00;99.90;;;;;;4963835;28;20210;-81
2022/12/14 14:33:55;;;;;;;27.67;17.47;;;1.00;99.90;;;;;;4968684;28;20200;-80
2022/12/14 14:36:29;;;;;;;25.30;17.50;;;1.10;99.90;;;;;;4962086;28;20282;-80
2022/12/14 14:39:05;;;;;;;30.40;17.73;;;1.20;99.90;;;;;;4967089;28;20678;-80
2022/12/14 14:41:37;;;;;;;28.00;18.13;;;1.30;99.90;;;;;;4968759;28;20219;-80
2022/12/14 14:44:21;;;;;;;28.80;19.17;;;1.40;99.90;;;;;;4970078;28;20205;-81
2022/12/14 14:46:52;;;;;;;29.20;20.27;;;1.30;99.90;;;;;;4970451;28;20665;-80
2022/12/14 14:49:24;;;;;;;29.57;18.33;;;1.10;99.90;;;;;;4967900;28;20221;-80
2022/12/14 14:52:29;;;;;;;33.07;19.60;;;1.00;99.90;;;;;;4981891;28;20204;-80
2022/12/14 14:55:50;;;;;;;26.70;18.70;;;1.00;99.90;;;;;;5007224;28;20215;-81
2022/12/14 14:58:25;;;;;;;31.77;18.97;;;1.10;99.90;;;;;;5002636;28;20294;-82
2022/12/14 15:00:55;;;;;;;30.03;20.13;;;1.20;99.90;;;;;;5008041;28;20199;-83
2022/12/14 15:03:48;;;;;;;29.60;20.63;;;1.20;99.90;;;;;;5004592;28;20991;-81
2022/12/14 15:06:25;;;;;;;29.37;18.63;;;1.10;99.90;;;;;;5012974;28;20205;-81
2022/12/14 15:15:51;;;;;;;31.90;20.57;;;1.30;99.90;;;;;;5007098;28;20195;-82
2022/12/14 15:19:13;;;;;;;32.23;21.03;;;1.30;99.90;;;;;;5007436;28;20195;-82
2022/12/14 15:25:06;;;;;;;32.17;20.67;;;1.30;99.90;;;;;;5014218;28;20245;-82
2022/12/14 15:30:58;;;;;;;36.43;22.27;;;1.40;99.90;;;;;;5005221;28;20203;-84
2022/12/14 15:33:28;;;;;;;39.67;23.07;;;1.30;99.90;;;;;;5012147;28;20214;-81
2022/12/14 15:36:03;;;;;;;42.17;23.53;;;1.40;99.90;;;;;;4999325;28;20202;-81
2022/12/14 15:38:51;;;;;;;42.87;22.67;;;1.40;99.90;;;;;;5008827;28;20199;-81
2022/12/14 15:41:22;;;;;;;45.33;23.93;;;1.40;99.90;;;;;;5003723;28;20235;-82
2022/12/14 15:44:02;;;;;;;47.63;25.73;;;1.30;99.90;;;;;;5008879;28;20227;-82
2022/12/14 15:46:33;;;;;;;39.03;23.23;;;1.20;99.90;;;;;;5005586;28;20271;-83
2022/12/14 15:49:45;;;;;;;43.03;23.87;;;1.20;99.90;;;;;;5006206;28;20226;-83
2022/12/14 15:52:30;;;;;;;44.00;24.53;;;1.20;99.90;;;;;;5004879;28;20565;-83
2022/12/14 15:54:59;;;;;;;42.80;24.03;;;1.30;99.90;;;;;;5003840;28;20227;-84